sensor_id;sensor_type;location;lat;lon;timestamp;P1;durP1;ratioP1;P2;durP2;ratioP2
75508;SDS011;64214;47.250;11.332;2022-11-04T00:00:01;1.55;;;1.02;;
75508;SDS011;64214;47.250;11.332;2022-11-04T00:00:15;1.55;;;0.90;;
75508;SDS011;64214;47.250;11.332;2022-11-04T00:00:26;1.33;;;0.90;;
75508;SDS011;64214;47.250;11.332;2022-11-04T00:00:37;1.17;;;0.90;;
75508;SDS011;64214;47.250;11.332;2022-11-04T00:00:48;1.40;;;1.02;;
75508;SDS011;64214;47.250;11.332;2022-11-04T00:01:03;1.33;;;1.05;;
75508;SDS011;64214;47.250;11.332;2022-11-04T00:01:15;1.50;;;1.08;;
75508;SDS011;64214;47.250;11.332;2022-11-04T00:01:26;1.52;;;1.00;;
75508;SDS011;64214;47.250;11.332;2022-11-04T00:01:39;1.40;;;0.98;;
75508;SDS011;64214;47.250;11.332;2022-11-04T00:01:51;1.67;;;1.00;;
75508;SDS011;64214;47.250;11.332;2022-11-04T00:02:03;2.30;;;1.10;;
75508;SDS011;64214;47.250;11.332;2022-11-04T00:02:14;2.20;;;1.00;;
75508;SDS011;64214;47.250;11.332;2022-11-04T00:02:25;1.73;;;0.90;;
75508;SDS011;64214;47.250;11.332;2022-11-04T00:02:36;1.10;;;0.93;;
75508;SDS011;64214;47.250;11.332;2022-11-04T00:02:47;1.33;;;1.00;;
75508;SDS011;64214;47.250;11.332;2022-11-04T00:02:58;1.33;;;1.00;;
75508;SDS011;64214;47.250;11.332;2022-11-04T00:03:09;1.63;;;1.02;;
75508;SDS011;64214;47.250;11.332;2022-11-04T00:03:20;1.55;;;1.05;;
75508;SDS011;64214;47.250;11.332;2022-11-04T00:03:31;1.42;;;1.00;;
75508;SDS011;64214;47.250;11.332;2022-11-04T00:03:42;1.23;;;0.93;;
75508;SDS011;64214;47.250;11.332;2022-11-04T00:03:54;1.42;;;1.00;;
75508;SDS011;64214;47.250;11.332;2022-11-04T00:04:05;1.58;;;1.05;;
75508;SDS011;64214;47.250;11.332;2022-11-04T00:04:18;2.97;;;1.20;;
75508;SDS011;64214;47.250;11.332;2022-11-04T00:04:29;2.97;;;1.20;;
75508;SDS011;64214;47.250;11.332;2022-11-04T00:04:41;1.83;;;1.10;;
75508;SDS011;64214;47.250;11.332;2022-11-04T00:04:52;1.52;;;1.02;;
75508;SDS011;64214;47.250;11.332;2022-11-04T00:05:03;1.45;;;1.20;;
75508;SDS011;64214;47.250;11.332;2022-11-04T00:05:14;1.80;;;1.25;;
75508;SDS011;64214;47.250;11.332;2022-11-04T00:05:25;1.90;;;1.20;;
75508;SDS011;64214;47.250;11.332;2022-11-04T00:05:36;2.20;;;1.30;;
75508;SDS011;64214;47.250;11.332;2022-11-04T00:05:47;1.90;;;1.30;;
75508;SDS011;64214;47.250;11.332;2022-11-04T00:06:01;1.98;;;1.30;;
75508;SDS011;64214;47.250;11.332;2022-11-04T00:06:12;1.60;;;1.20;;
75508;SDS011;64214;47.250;11.332;2022-11-04T00:06:23;1.75;;;1.20;;
75508;SDS011;64214;47.250;11.332;2022-11-04T00:06:35;1.80;;;1.30;;
75508;SDS011;64214;47.250;11.332;2022-11-04T00:06:46;1.70;;;1.35;;
75508;SDS011;64214;47.250;11.332;2022-11-04T00:06:58;2.25;;;1.35;;
75508;SDS011;64214;47.250;11.332;2022-11-04T00:07:09;2.40;;;1.45;;
75508;SDS011;64214;47.250;11.332;2022-11-04T00:07:40;2.13;;;1.50;;
75508;SDS011;64214;47.250;11.332;2022-11-04T00:08:09;1.77;;;1.40;;
75508;SDS011;64214;47.250;11.332;2022-11-04T00:08:35;2.08;;;1.60;;
75508;SDS011;64214;47.250;11.332;2022-11-04T00:08:50;2.40;;;1.70;;
75508;SDS011;64214;47.250;11.332;2022-11-04T00:09:02;2.63;;;1.70;;
75508;SDS011;64214;47.250;11.332;2022-11-04T00:09:15;2.35;;;1.50;;
75508;SDS011;64214;47.250;11.332;2022-11-04T00:09:30;2.30;;;1.70;;
75508;SDS011;64214;47.250;11.332;2022-11-04T00:09:41;2.40;;;1.83;;
75508;SDS011;64214;47.250;11.332;2022-11-04T00:09:52;2.80;;;1.90;;
75508;SDS011;64214;47.250;11.332;2022-11-04T00:10:03;3.20;;;1.83;;
75508;SDS011;64214;47.250;11.332;2022-11-04T00:10:14;3.08;;;1.80;;
75508;SDS011;64214;47.250;11.332;2022-11-04T00:10:26;2.50;;;1.83;;
75508;SDS011;64214;47.250;11.332;2022-11-04T00:10:57;2.22;;;1.63;;
75508;SDS011;64214;47.250;11.332;2022-11-04T00:11:27;3.05;;;1.70;;
75508;SDS011;64214;47.250;11.332;2022-11-04T00:11:57;3.45;;;1.60;;
75508;SDS011;64214;47.250;11.332;2022-11-04T00:12:27;2.70;;;1.55;;
75508;SDS011;64214;47.250;11.332;2022-11-04T00:12:38;2.55;;;1.50;;
75508;SDS011;64214;47.250;11.332;2022-11-04T00:12:51;2.63;;;1.50;;
75508;SDS011;64214;47.250;11.332;2022-11-04T00:13:02;2.35;;;1.45;;
75508;SDS011;64214;47.250;11.332;2022-11-04T00:13:13;2.40;;;1.40;;
75508;SDS011;64214;47.250;11.332;2022-11-04T00:13:27;2.22;;;1.30;;
75508;SDS011;64214;47.250;11.332;2022-11-04T00:13:39;2.60;;;1.40;;
75508;SDS011;64214;47.250;11.332;2022-11-04T00:13:50;2.28;;;1.40;;
75508;SDS011;64214;47.250;11.332;2022-11-04T00:14:02;2.30;;;1.38;;
75508;SDS011;64214;47.250;11.332;2022-11-04T00:14:14;2.25;;;1.50;;
75508;SDS011;64214;47.250;11.332;2022-11-04T00:14:26;2.28;;;1.58;;
75508;SDS011;64214;47.250;11.332;2022-11-04T00:14:38;1.60;;;1.40;;
75508;SDS011;64214;47.250;11.332;2022-11-04T00:14:49;1.48;;;1.38;;
75508;SDS011;64214;47.250;11.332;2022-11-04T00:15:00;1.50;;;1.40;;
75508;SDS011;64214;47.250;11.332;2022-11-04T00:15:35;2.13;;;1.45;;
75508;SDS011;64214;47.250;11.332;2022-11-04T00:16:15;2.03;;;1.52;;
75508;SDS011;64214;47.250;11.332;2022-11-04T00:16:45;2.40;;;1.40;;
75508;SDS011;64214;47.250;11.332;2022-11-04T00:17:15;2.60;;;1.52;;
75508;SDS011;64214;47.250;11.332;2022-11-04T00:17:29;1.83;;;1.33;;
75508;SDS011;64214;47.250;11.332;2022-11-04T00:17:40;1.83;;;1.35;;
75508;SDS011;64214;47.250;11.332;2022-11-04T00:17:51;1.80;;;1.52;;
75508;SDS011;64214;47.250;11.332;2022-11-04T00:18:02;2.20;;;1.70;;
75508;SDS011;64214;47.250;11.332;2022-11-04T00:18:13;1.90;;;1.50;;
75508;SDS011;64214;47.250;11.332;2022-11-04T00:18:24;2.72;;;1.48;;
75508;SDS011;64214;47.250;11.332;2022-11-04T00:18:35;2.60;;;1.40;;
75508;SDS011;64214;47.250;11.332;2022-11-04T00:18:46;2.75;;;1.33;;
75508;SDS011;64214;47.250;11.332;2022-11-04T00:19:00;1.80;;;1.20;;
75508;SDS011;64214;47.250;11.332;2022-11-04T00:19:12;1.85;;;1.27;;
75508;SDS011;64214;47.250;11.332;2022-11-04T00:19:23;1.83;;;1.25;;
75508;SDS011;64214;47.250;11.332;2022-11-04T00:19:34;2.13;;;1.40;;
75508;SDS011;64214;47.250;11.332;2022-11-04T00:20:04;1.83;;;1.33;;
75508;SDS011;64214;47.250;11.332;2022-11-04T00:20:34;1.90;;;1.20;;
75508;SDS011;64214;47.250;11.332;2022-11-04T00:21:04;1.63;;;1.27;;
75508;SDS011;64214;47.250;11.332;2022-11-04T00:21:34;1.98;;;1.23;;
75508;SDS011;64214;47.250;11.332;2022-11-04T00:22:04;1.70;;;1.10;;
75508;SDS011;64214;47.250;11.332;2022-11-04T00:22:33;1.40;;;1.20;;
75508;SDS011;64214;47.250;11.332;2022-11-04T00:23:03;1.60;;;1.20;;
75508;SDS011;64214;47.250;11.332;2022-11-04T00:23:33;2.05;;;1.50;;
75508;SDS011;64214;47.250;11.332;2022-11-04T00:24:03;2.42;;;1.40;;
75508;SDS011;64214;47.250;11.332;2022-11-04T00:24:33;1.92;;;1.42;;
75508;SDS011;64214;47.250;11.332;2022-11-04T00:24:53;3.30;;;1.40;;
75508;SDS011;64214;47.250;11.332;2022-11-04T00:25:22;2.20;;;1.40;;
75508;SDS011;64214;47.250;11.332;2022-11-04T00:25:52;1.95;;;1.50;;
75508;SDS011;64214;47.250;11.332;2022-11-04T00:26:22;2.90;;;1.80;;
75508;SDS011;64214;47.250;11.332;2022-11-04T00:26:52;2.45;;;1.50;;
75508;SDS011;64214;47.250;11.332;2022-11-04T00:27:22;2.03;;;1.25;;
75508;SDS011;64214;47.250;11.332;2022-11-04T00:28:13;1.88;;;1.40;;
75508;SDS011;64214;47.250;11.332;2022-11-04T00:28:44;1.60;;;1.35;;
75508;SDS011;64214;47.250;11.332;2022-11-04T00:28:55;1.75;;;1.40;;
75508;SDS011;64214;47.250;11.332;2022-11-04T00:29:06;2.13;;;1.33;;
75508;SDS011;64214;47.250;11.332;2022-11-04T00:29:17;1.98;;;1.30;;
75508;SDS011;64214;47.250;11.332;2022-11-04T00:29:28;2.60;;;1.38;;
75508;SDS011;64214;47.250;11.332;2022-11-04T00:29:39;2.70;;;1.40;;
75508;SDS011;64214;47.250;11.332;2022-11-04T00:29:50;2.53;;;1.40;;
75508;SDS011;64214;47.250;11.332;2022-11-04T00:30:03;3.75;;;1.50;;
75508;SDS011;64214;47.250;11.332;2022-11-04T00:30:15;3.80;;;1.40;;
75508;SDS011;64214;47.250;11.332;2022-11-04T00:30:26;2.78;;;1.30;;
75508;SDS011;64214;47.250;11.332;2022-11-04T00:30:37;1.80;;;1.20;;
75508;SDS011;64214;47.250;11.332;2022-11-04T00:30:51;2.15;;;1.40;;
75508;SDS011;64214;47.250;11.332;2022-11-04T00:31:05;2.15;;;1.38;;
75508;SDS011;64214;47.250;11.332;2022-11-04T00:31:35;2.25;;;1.40;;
75508;SDS011;64214;47.250;11.332;2022-11-04T00:32:05;3.25;;;1.30;;
75508;SDS011;64214;47.250;11.332;2022-11-04T00:32:34;2.30;;;1.60;;
75508;SDS011;64214;47.250;11.332;2022-11-04T00:33:04;2.33;;;1.40;;
75508;SDS011;64214;47.250;11.332;2022-11-04T00:33:34;2.13;;;1.55;;
75508;SDS011;64214;47.250;11.332;2022-11-04T00:33:45;2.38;;;1.60;;
75508;SDS011;64214;47.250;11.332;2022-11-04T00:33:58;2.22;;;1.65;;
75508;SDS011;64214;47.250;11.332;2022-11-04T00:34:09;1.90;;;1.52;;
75508;SDS011;64214;47.250;11.332;2022-11-04T00:34:20;1.92;;;1.48;;
75508;SDS011;64214;47.250;11.332;2022-11-04T00:34:31;2.13;;;1.48;;
75508;SDS011;64214;47.250;11.332;2022-11-04T00:34:42;2.63;;;1.50;;
75508;SDS011;64214;47.250;11.332;2022-11-04T00:34:53;2.63;;;1.45;;
75508;SDS011;64214;47.250;11.332;2022-11-04T00:35:05;2.25;;;1.35;;
75508;SDS011;64214;47.250;11.332;2022-11-04T00:35:16;2.30;;;1.30;;
75508;SDS011;64214;47.250;11.332;2022-11-04T00:35:27;1.90;;;1.25;;
75508;SDS011;64214;47.250;11.332;2022-11-04T00:35:38;2.40;;;1.38;;
75508;SDS011;64214;47.250;11.332;2022-11-04T00:35:50;2.00;;;1.30;;
75508;SDS011;64214;47.250;11.332;2022-11-04T00:36:01;2.03;;;1.40;;
75508;SDS011;64214;47.250;11.332;2022-11-04T00:36:12;2.53;;;1.40;;
75508;SDS011;64214;47.250;11.332;2022-11-04T00:36:23;2.78;;;1.35;;
75508;SDS011;64214;47.250;11.332;2022-11-04T00:36:35;3.00;;;1.40;;
75508;SDS011;64214;47.250;11.332;2022-11-04T00:36:46;2.10;;;1.40;;
75508;SDS011;64214;47.250;11.332;2022-11-04T00:36:58;1.98;;;1.50;;
75508;SDS011;64214;47.250;11.332;2022-11-04T00:37:09;1.65;;;1.40;;
75508;SDS011;64214;47.250;11.332;2022-11-04T00:37:20;1.42;;;1.30;;
75508;SDS011;64214;47.250;11.332;2022-11-04T00:37:34;1.80;;;1.40;;
75508;SDS011;64214;47.250;11.332;2022-11-04T00:37:46;1.83;;;1.35;;
75508;SDS011;64214;47.250;11.332;2022-11-04T00:37:57;2.13;;;1.27;;
75508;SDS011;64214;47.250;11.332;2022-11-04T00:38:08;2.80;;;1.40;;
75508;SDS011;64214;47.250;11.332;2022-11-04T00:38:19;2.70;;;1.30;;
75508;SDS011;64214;47.250;11.332;2022-11-04T00:38:30;2.20;;;1.27;;
75508;SDS011;64214;47.250;11.332;2022-11-04T00:38:41;1.67;;;1.20;;
75508;SDS011;64214;47.250;11.332;2022-11-04T00:38:53;2.33;;;1.23;;
75508;SDS011;64214;47.250;11.332;2022-11-04T00:39:04;2.38;;;1.38;;
75508;SDS011;64214;47.250;11.332;2022-11-04T00:39:15;1.95;;;1.30;;
75508;SDS011;64214;47.250;11.332;2022-11-04T00:39:26;2.17;;;1.30;;
75508;SDS011;64214;47.250;11.332;2022-11-04T00:39:37;2.22;;;1.30;;
75508;SDS011;64214;47.250;11.332;2022-11-04T00:39:48;2.08;;;1.30;;
75508;SDS011;64214;47.250;11.332;2022-11-04T00:40:00;1.83;;;1.38;;
75508;SDS011;64214;47.250;11.332;2022-11-04T00:40:12;2.13;;;1.38;;
75508;SDS011;64214;47.250;11.332;2022-11-04T00:40:24;2.22;;;1.20;;
75508;SDS011;64214;47.250;11.332;2022-11-04T00:40:35;1.92;;;1.13;;
75508;SDS011;64214;47.250;11.332;2022-11-04T00:40:46;1.40;;;1.10;;
75508;SDS011;64214;47.250;11.332;2022-11-04T00:40:57;1.40;;;1.20;;
75508;SDS011;64214;47.250;11.332;2022-11-04T00:41:08;1.48;;;1.20;;
75508;SDS011;64214;47.250;11.332;2022-11-04T00:41:38;1.55;;;1.08;;
75508;SDS011;64214;47.250;11.332;2022-11-04T00:41:49;1.63;;;1.05;;
75508;SDS011;64214;47.250;11.332;2022-11-04T00:42:00;1.80;;;1.20;;
75508;SDS011;64214;47.250;11.332;2022-11-04T00:42:11;2.08;;;1.38;;
75508;SDS011;64214;47.250;11.332;2022-11-04T00:42:22;2.05;;;1.40;;
75508;SDS011;64214;47.250;11.332;2022-11-04T00:42:33;1.92;;;1.20;;
75508;SDS011;64214;47.250;11.332;2022-11-04T00:42:44;1.55;;;1.10;;
75508;SDS011;64214;47.250;11.332;2022-11-04T00:42:56;1.88;;;1.20;;
75508;SDS011;64214;47.250;11.332;2022-11-04T00:43:07;2.08;;;1.30;;
75508;SDS011;64214;47.250;11.332;2022-11-04T00:43:18;1.85;;;1.25;;
75508;SDS011;64214;47.250;11.332;2022-11-04T00:43:29;1.88;;;1.10;;
75508;SDS011;64214;47.250;11.332;2022-11-04T00:43:40;1.40;;;1.10;;
75508;SDS011;64214;47.250;11.332;2022-11-04T00:43:52;1.45;;;1.20;;
75508;SDS011;64214;47.250;11.332;2022-11-04T00:44:04;1.42;;;1.20;;
75508;SDS011;64214;47.250;11.332;2022-11-04T00:44:15;1.40;;;1.10;;
75508;SDS011;64214;47.250;11.332;2022-11-04T00:44:26;1.70;;;1.10;;
75508;SDS011;64214;47.250;11.332;2022-11-04T00:44:37;1.98;;;1.20;;
75508;SDS011;64214;47.250;11.332;2022-11-04T00:44:48;2.13;;;1.20;;
75508;SDS011;64214;47.250;11.332;2022-11-04T00:44:59;2.13;;;1.30;;
75508;SDS011;64214;47.250;11.332;2022-11-04T00:45:10;1.90;;;1.40;;
75508;SDS011;64214;47.250;11.332;2022-11-04T00:45:22;2.00;;;1.40;;
75508;SDS011;64214;47.250;11.332;2022-11-04T00:45:33;2.30;;;1.40;;
75508;SDS011;64214;47.250;11.332;2022-11-04T00:45:44;2.47;;;1.38;;
75508;SDS011;64214;47.250;11.332;2022-11-04T00:45:55;2.25;;;1.35;;
75508;SDS011;64214;47.250;11.332;2022-11-04T00:46:06;1.83;;;1.30;;
75508;SDS011;64214;47.250;11.332;2022-11-04T00:46:17;2.08;;;1.20;;
75508;SDS011;64214;47.250;11.332;2022-11-04T00:46:29;2.13;;;1.20;;
75508;SDS011;64214;47.250;11.332;2022-11-04T00:46:42;2.30;;;1.15;;
75508;SDS011;64214;47.250;11.332;2022-11-04T00:46:53;2.05;;;1.27;;
75508;SDS011;64214;47.250;11.332;2022-11-04T00:47:04;2.33;;;1.35;;
75508;SDS011;64214;47.250;11.332;2022-11-04T00:47:15;3.43;;;1.60;;
75508;SDS011;64214;47.250;11.332;2022-11-04T00:47:27;3.65;;;1.45;;
75508;SDS011;64214;47.250;11.332;2022-11-04T00:47:38;2.42;;;1.27;;
75508;SDS011;64214;47.250;11.332;2022-11-04T00:47:49;2.75;;;1.20;;
75508;SDS011;64214;47.250;11.332;2022-11-04T00:48:00;2.38;;;1.20;;
75508;SDS011;64214;47.250;11.332;2022-11-04T00:48:11;1.88;;;1.10;;
75508;SDS011;64214;47.250;11.332;2022-11-04T00:48:22;1.65;;;1.15;;
75508;SDS011;64214;47.250;11.332;2022-11-04T00:48:33;1.92;;;1.27;;
75508;SDS011;64214;47.250;11.332;2022-11-04T00:48:44;1.80;;;1.23;;
75508;SDS011;64214;47.250;11.332;2022-11-04T00:48:56;1.75;;;1.15;;
75508;SDS011;64214;47.250;11.332;2022-11-04T00:49:07;1.50;;;0.90;;
75508;SDS011;64214;47.250;11.332;2022-11-04T00:49:18;2.00;;;1.10;;
75508;SDS011;64214;47.250;11.332;2022-11-04T00:49:29;2.13;;;1.25;;
75508;SDS011;64214;47.250;11.332;2022-11-04T00:49:40;2.28;;;1.33;;
75508;SDS011;64214;47.250;11.332;2022-11-04T00:49:51;2.20;;;1.40;;
75508;SDS011;64214;47.250;11.332;2022-11-04T00:50:02;1.80;;;1.20;;
75508;SDS011;64214;47.250;11.332;2022-11-04T00:50:14;1.70;;;1.30;;
75508;SDS011;64214;47.250;11.332;2022-11-04T00:50:25;1.83;;;1.13;;
75508;SDS011;64214;47.250;11.332;2022-11-04T00:50:36;2.10;;;1.27;;
75508;SDS011;64214;47.250;11.332;2022-11-04T00:50:47;2.00;;;1.23;;
75508;SDS011;64214;47.250;11.332;2022-11-04T00:50:58;1.67;;;1.25;;
75508;SDS011;64214;47.250;11.332;2022-11-04T00:51:09;1.75;;;1.10;;
75508;SDS011;64214;47.250;11.332;2022-11-04T00:51:20;2.47;;;1.10;;
75508;SDS011;64214;47.250;11.332;2022-11-04T00:51:32;3.15;;;1.15;;
75508;SDS011;64214;47.250;11.332;2022-11-04T00:51:43;3.38;;;1.20;;
75508;SDS011;64214;47.250;11.332;2022-11-04T00:51:54;2.70;;;1.30;;
75508;SDS011;64214;47.250;11.332;2022-11-04T00:52:05;2.45;;;1.25;;
75508;SDS011;64214;47.250;11.332;2022-11-04T00:52:16;2.80;;;1.30;;
75508;SDS011;64214;47.250;11.332;2022-11-04T00:52:28;3.05;;;1.30;;
75508;SDS011;64214;47.250;11.332;2022-11-04T00:52:39;2.05;;;1.20;;
75508;SDS011;64214;47.250;11.332;2022-11-04T00:52:50;1.95;;;1.15;;
75508;SDS011;64214;47.250;11.332;2022-11-04T00:53:01;1.83;;;1.20;;
75508;SDS011;64214;47.250;11.332;2022-11-04T00:53:12;1.83;;;1.30;;
75508;SDS011;64214;47.250;11.332;2022-11-04T00:53:24;1.55;;;1.23;;
75508;SDS011;64214;47.250;11.332;2022-11-04T00:53:35;1.50;;;1.25;;
75508;SDS011;64214;47.250;11.332;2022-11-04T00:53:46;1.50;;;1.10;;
75508;SDS011;64214;47.250;11.332;2022-11-04T00:53:57;1.30;;;1.00;;
75508;SDS011;64214;47.250;11.332;2022-11-04T00:54:08;1.60;;;0.90;;
75508;SDS011;64214;47.250;11.332;2022-11-04T00:54:19;2.05;;;1.00;;
75508;SDS011;64214;47.250;11.332;2022-11-04T00:54:31;2.22;;;1.02;;
75508;SDS011;64214;47.250;11.332;2022-11-04T00:54:42;2.13;;;1.20;;
75508;SDS011;64214;47.250;11.332;2022-11-04T00:54:53;1.75;;;1.20;;
75508;SDS011;64214;47.250;11.332;2022-11-04T00:55:04;1.52;;;1.08;;
75508;SDS011;64214;47.250;11.332;2022-11-04T00:55:16;1.70;;;1.08;;
75508;SDS011;64214;47.250;11.332;2022-11-04T00:55:27;1.92;;;1.10;;
75508;SDS011;64214;47.250;11.332;2022-11-04T00:55:38;1.85;;;1.20;;
75508;SDS011;64214;47.250;11.332;2022-11-04T00:55:49;1.70;;;1.10;;
75508;SDS011;64214;47.250;11.332;2022-11-04T00:56:00;2.00;;;1.10;;
75508;SDS011;64214;47.250;11.332;2022-11-04T00:56:11;2.30;;;1.08;;
75508;SDS011;64214;47.250;11.332;2022-11-04T00:56:22;2.70;;;1.00;;
75508;SDS011;64214;47.250;11.332;2022-11-04T00:56:36;2.45;;;1.10;;
75508;SDS011;64214;47.250;11.332;2022-11-04T00:56:48;1.75;;;1.20;;
75508;SDS011;64214;47.250;11.332;2022-11-04T00:56:59;1.52;;;1.15;;
75508;SDS011;64214;47.250;11.332;2022-11-04T00:57:10;1.38;;;1.10;;
75508;SDS011;64214;47.250;11.332;2022-11-04T00:57:22;1.48;;;0.95;;
75508;SDS011;64214;47.250;11.332;2022-11-04T00:57:33;1.55;;;1.00;;
75508;SDS011;64214;47.250;11.332;2022-11-04T00:57:44;1.50;;;1.02;;
75508;SDS011;64214;47.250;11.332;2022-11-04T00:57:56;1.80;;;1.17;;
75508;SDS011;64214;47.250;11.332;2022-11-04T00:58:07;1.98;;;1.10;;
75508;SDS011;64214;47.250;11.332;2022-11-04T00:58:18;2.05;;;1.10;;
75508;SDS011;64214;47.250;11.332;2022-11-04T00:58:29;2.00;;;1.00;;
75508;SDS011;64214;47.250;11.332;2022-11-04T00:58:40;2.30;;;1.00;;
75508;SDS011;64214;47.250;11.332;2022-11-04T00:58:52;1.92;;;1.00;;
75508;SDS011;64214;47.250;11.332;2022-11-04T00:59:03;1.95;;;1.10;;
75508;SDS011;64214;47.250;11.332;2022-11-04T00:59:14;1.50;;;1.00;;
75508;SDS011;64214;47.250;11.332;2022-11-04T00:59:25;1.58;;;1.00;;
75508;SDS011;64214;47.250;11.332;2022-11-04T00:59:36;1.48;;;1.00;;
75508;SDS011;64214;47.250;11.332;2022-11-04T00:59:47;1.50;;;1.13;;
75508;SDS011;64214;47.250;11.332;2022-11-04T01:00:01;1.60;;;1.10;;
75508;SDS011;64214;47.250;11.332;2022-11-04T01:00:13;1.60;;;1.10;;
75508;SDS011;64214;47.250;11.332;2022-11-04T01:00:24;1.90;;;1.25;;
75508;SDS011;64214;47.250;11.332;2022-11-04T01:00:36;1.80;;;1.30;;
75508;SDS011;64214;47.250;11.332;2022-11-04T01:00:47;1.85;;;1.30;;
75508;SDS011;64214;47.250;11.332;2022-11-04T01:00:58;1.52;;;1.02;;
75508;SDS011;64214;47.250;11.332;2022-11-04T01:01:10;1.70;;;1.10;;
75508;SDS011;64214;47.250;11.332;2022-11-04T01:01:22;1.70;;;1.10;;
75508;SDS011;64214;47.250;11.332;2022-11-04T01:01:33;1.50;;;1.00;;
75508;SDS011;64214;47.250;11.332;2022-11-04T01:01:44;1.30;;;1.10;;
75508;SDS011;64214;47.250;11.332;2022-11-04T01:01:56;1.38;;;1.10;;
75508;SDS011;64214;47.250;11.332;2022-11-04T01:02:08;1.50;;;1.13;;
75508;SDS011;64214;47.250;11.332;2022-11-04T01:02:19;2.00;;;1.20;;
75508;SDS011;64214;47.250;11.332;2022-11-04T01:02:30;2.03;;;1.20;;
75508;SDS011;64214;47.250;11.332;2022-11-04T01:02:41;1.98;;;1.13;;
75508;SDS011;64214;47.250;11.332;2022-11-04T01:02:52;1.67;;;1.20;;
75508;SDS011;64214;47.250;11.332;2022-11-04T01:03:03;1.83;;;1.35;;
75508;SDS011;64214;47.250;11.332;2022-11-04T01:03:15;1.80;;;1.25;;
75508;SDS011;64214;47.250;11.332;2022-11-04T01:03:26;1.83;;;1.10;;
75508;SDS011;64214;47.250;11.332;2022-11-04T01:03:37;2.20;;;1.10;;
75508;SDS011;64214;47.250;11.332;2022-11-04T01:03:48;2.10;;;1.15;;
75508;SDS011;64214;47.250;11.332;2022-11-04T01:04:01;2.97;;;1.23;;
75508;SDS011;64214;47.250;11.332;2022-11-04T01:04:12;2.92;;;1.25;;
75508;SDS011;64214;47.250;11.332;2022-11-04T01:04:23;1.58;;;1.10;;
75508;SDS011;64214;47.250;11.332;2022-11-04T01:04:34;1.70;;;1.20;;
75508;SDS011;64214;47.250;11.332;2022-11-04T01:04:45;1.75;;;1.20;;
75508;SDS011;64214;47.250;11.332;2022-11-04T01:04:57;1.70;;;1.10;;
75508;SDS011;64214;47.250;11.332;2022-11-04T01:05:08;1.47;;;1.00;;
75508;SDS011;64214;47.250;11.332;2022-11-04T01:05:19;1.48;;;1.02;;
75508;SDS011;64214;47.250;11.332;2022-11-04T01:05:30;1.73;;;1.10;;
75508;SDS011;64214;47.250;11.332;2022-11-04T01:05:41;2.15;;;1.30;;
75508;SDS011;64214;47.250;11.332;2022-11-04T01:05:52;2.20;;;1.30;;
75508;SDS011;64214;47.250;11.332;2022-11-04T01:06:04;2.15;;;1.35;;
75508;SDS011;64214;47.250;11.332;2022-11-04T01:06:15;1.95;;;1.27;;
75508;SDS011;64214;47.250;11.332;2022-11-04T01:06:27;2.90;;;1.33;;
75508;SDS011;64214;47.250;11.332;2022-11-04T01:06:38;3.30;;;1.35;;
75508;SDS011;64214;47.250;11.332;2022-11-04T01:06:49;3.10;;;1.58;;
75508;SDS011;64214;47.250;11.332;2022-11-04T01:07:01;2.95;;;1.80;;
75508;SDS011;64214;47.250;11.332;2022-11-04T01:07:12;3.15;;;1.90;;
75508;SDS011;64214;47.250;11.332;2022-11-04T01:07:23;3.33;;;1.80;;
75508;SDS011;64214;47.250;11.332;2022-11-04T01:07:34;2.35;;;1.60;;
75508;SDS011;64214;47.250;11.332;2022-11-04T01:07:46;2.10;;;1.63;;
75508;SDS011;64214;47.250;11.332;2022-11-04T01:07:57;2.50;;;1.80;;
75508;SDS011;64214;47.250;11.332;2022-11-04T01:08:08;3.15;;;2.00;;
75508;SDS011;64214;47.250;11.332;2022-11-04T01:08:19;3.33;;;1.90;;
75508;SDS011;64214;47.250;11.332;2022-11-04T01:08:30;3.35;;;1.80;;
75508;SDS011;64214;47.250;11.332;2022-11-04T01:08:41;3.05;;;1.98;;
75508;SDS011;64214;47.250;11.332;2022-11-04T01:08:56;2.63;;;1.85;;
75508;SDS011;64214;47.250;11.332;2022-11-04T01:09:13;2.65;;;1.73;;
75508;SDS011;64214;47.250;11.332;2022-11-04T01:09:24;2.33;;;1.88;;
75508;SDS011;64214;47.250;11.332;2022-11-04T01:09:35;3.75;;;2.05;;
75508;SDS011;64214;47.250;11.332;2022-11-04T01:09:47;4.10;;;2.10;;
75508;SDS011;64214;47.250;11.332;2022-11-04T01:09:59;2.88;;;1.95;;
75508;SDS011;64214;47.250;11.332;2022-11-04T01:10:10;3.88;;;2.00;;
75508;SDS011;64214;47.250;11.332;2022-11-04T01:10:21;3.47;;;1.90;;
75508;SDS011;64214;47.250;11.332;2022-11-04T01:10:33;3.13;;;2.00;;
75508;SDS011;64214;47.250;11.332;2022-11-04T01:10:45;2.55;;;1.83;;
75508;SDS011;64214;47.250;11.332;2022-11-04T01:10:59;3.17;;;1.95;;
75508;SDS011;64214;47.250;11.332;2022-11-04T01:11:17;2.72;;;1.95;;
75508;SDS011;64214;47.250;11.332;2022-11-04T01:11:29;2.13;;;1.88;;
75508;SDS011;64214;47.250;11.332;2022-11-04T01:11:41;2.72;;;2.00;;
75508;SDS011;64214;47.250;11.332;2022-11-04T01:11:52;2.90;;;2.15;;
75508;SDS011;64214;47.250;11.332;2022-11-04T01:12:03;3.33;;;2.30;;
75508;SDS011;64214;47.250;11.332;2022-11-04T01:12:14;3.20;;;2.25;;
75508;SDS011;64214;47.250;11.332;2022-11-04T01:12:26;3.05;;;2.15;;
75508;SDS011;64214;47.250;11.332;2022-11-04T01:12:37;2.97;;;2.05;;
75508;SDS011;64214;47.250;11.332;2022-11-04T01:12:50;2.83;;;2.00;;
75508;SDS011;64214;47.250;11.332;2022-11-04T01:13:02;3.00;;;2.15;;
75508;SDS011;64214;47.250;11.332;2022-11-04T01:13:13;3.10;;;2.20;;
75508;SDS011;64214;47.250;11.332;2022-11-04T01:13:24;3.13;;;2.15;;
75508;SDS011;64214;47.250;11.332;2022-11-04T01:13:35;2.83;;;1.90;;
75508;SDS011;64214;47.250;11.332;2022-11-04T01:13:50;2.63;;;1.90;;
75508;SDS011;64214;47.250;11.332;2022-11-04T01:14:01;3.35;;;1.88;;
75508;SDS011;64214;47.250;11.332;2022-11-04T01:14:13;3.47;;;1.98;;
75508;SDS011;64214;47.250;11.332;2022-11-04T01:14:24;3.55;;;2.03;;
75508;SDS011;64214;47.250;11.332;2022-11-04T01:14:35;3.00;;;2.20;;
75508;SDS011;64214;47.250;11.332;2022-11-04T01:14:46;2.92;;;2.30;;
75508;SDS011;64214;47.250;11.332;2022-11-04T01:14:59;2.75;;;2.15;;
75508;SDS011;64214;47.250;11.332;2022-11-04T01:15:10;2.45;;;1.90;;
75508;SDS011;64214;47.250;11.332;2022-11-04T01:15:21;2.60;;;2.00;;
75508;SDS011;64214;47.250;11.332;2022-11-04T01:15:32;2.83;;;2.10;;
75508;SDS011;64214;47.250;11.332;2022-11-04T01:15:43;2.90;;;2.10;;
75508;SDS011;64214;47.250;11.332;2022-11-04T01:16:01;3.03;;;2.00;;
75508;SDS011;64214;47.250;11.332;2022-11-04T01:16:13;2.50;;;1.90;;
75508;SDS011;64214;47.250;11.332;2022-11-04T01:16:24;2.30;;;1.85;;
75508;SDS011;64214;47.250;11.332;2022-11-04T01:16:36;3.00;;;1.92;;
75508;SDS011;64214;47.250;11.332;2022-11-04T01:16:48;3.58;;;2.13;;
75508;SDS011;64214;47.250;11.332;2022-11-04T01:17:00;3.60;;;2.15;;
75508;SDS011;64214;47.250;11.332;2022-11-04T01:17:11;3.03;;;2.20;;
75508;SDS011;64214;47.250;11.332;2022-11-04T01:17:22;2.95;;;2.10;;
75508;SDS011;64214;47.250;11.332;2022-11-04T01:17:33;2.92;;;2.10;;
75508;SDS011;64214;47.250;11.332;2022-11-04T01:17:44;2.92;;;2.05;;
75508;SDS011;64214;47.250;11.332;2022-11-04T01:17:55;2.75;;;2.00;;
75508;SDS011;64214;47.250;11.332;2022-11-04T01:18:06;4.20;;;2.00;;
75508;SDS011;64214;47.250;11.332;2022-11-04T01:18:18;4.30;;;1.97;;
75508;SDS011;64214;47.250;11.332;2022-11-04T01:18:29;4.10;;;2.00;;
75508;SDS011;64214;47.250;11.332;2022-11-04T01:18:40;3.33;;;1.95;;
75508;SDS011;64214;47.250;11.332;2022-11-04T01:18:51;2.85;;;2.03;;
75508;SDS011;64214;47.250;11.332;2022-11-04T01:19:03;2.53;;;2.10;;
75508;SDS011;64214;47.250;11.332;2022-11-04T01:19:14;2.60;;;2.20;;